sensor_id;sensor_type;location;lat;lon;timestamp;P1;durP1;ratioP1;P2;durP2;ratioP2
32032;SDS011;31720;52.638;9.216;2023-10-19T00:02:32;14.48;;;7.50;;
32032;SDS011;31720;52.638;9.216;2023-10-19T00:05:34;14.25;;;7.90;;
32032;SDS011;31720;52.638;9.216;2023-10-19T00:08:36;19.83;;;8.48;;
32032;SDS011;31720;52.638;9.216;2023-10-19T00:11:41;19.20;;;8.38;;
32032;SDS011;31720;52.638;9.216;2023-10-19T00:14:44;16.95;;;8.13;;
32032;SDS011;31720;52.638;9.216;2023-10-19T00:17:46;18.55;;;9.05;;
32032;SDS011;31720;52.638;9.216;2023-10-19T00:20:53;17.02;;;8.55;;
32032;SDS011;31720;52.638;9.216;2023-10-19T00:23:59;21.48;;;8.80;;
32032;SDS011;31720;52.638;9.216;2023-10-19T00:27:05;14.00;;;8.50;;
32032;SDS011;31720;52.638;9.216;2023-10-19T00:30:16;15.43;;;8.65;;
32032;SDS011;31720;52.638;9.216;2023-10-19T00:33:23;17.70;;;8.77;;
32032;SDS011;31720;52.638;9.216;2023-10-19T00:36:28;19.52;;;9.18;;
32032;SDS011;31720;52.638;9.216;2023-10-19T00:39:31;17.02;;;8.73;;
32032;SDS011;31720;52.638;9.216;2023-10-19T00:42:42;19.98;;;9.48;;
32032;SDS011;31720;52.638;9.216;2023-10-19T00:45:47;19.50;;;9.88;;
32032;SDS011;31720;52.638;9.216;2023-10-19T00:48:53;18.73;;;9.90;;
32032;SDS011;31720;52.638;9.216;2023-10-19T00:51:58;21.08;;;9.95;;
32032;SDS011;31720;52.638;9.216;2023-10-19T00:55:11;19.40;;;10.00;;
32032;SDS011;31720;52.638;9.216;2023-10-19T00:58:14;22.55;;;9.85;;
32032;SDS011;31720;52.638;9.216;2023-10-19T01:01:20;22.70;;;9.70;;
32032;SDS011;31720;52.638;9.216;2023-10-19T01:04:28;18.92;;;9.23;;
32032;SDS011;31720;52.638;9.216;2023-10-19T01:07:32;23.83;;;9.80;;
32032;SDS011;31720;52.638;9.216;2023-10-19T01:10:38;19.30;;;10.18;;
32032;SDS011;31720;52.638;9.216;2023-10-19T01:13:40;22.13;;;10.95;;
32032;SDS011;31720;52.638;9.216;2023-10-19T01:16:45;20.75;;;9.63;;
32032;SDS011;31720;52.638;9.216;2023-10-19T01:19:49;19.10;;;10.20;;
32032;SDS011;31720;52.638;9.216;2023-10-19T01:22:54;27.65;;;11.40;;
32032;SDS011;31720;52.638;9.216;2023-10-19T01:26:20;18.20;;;9.82;;
32032;SDS011;31720;52.638;9.216;2023-10-19T01:29:26;22.25;;;10.05;;
32032;SDS011;31720;52.638;9.216;2023-10-19T01:32:28;22.00;;;10.48;;
32032;SDS011;31720;52.638;9.216;2023-10-19T01:35:30;21.67;;;10.60;;
32032;SDS011;31720;52.638;9.216;2023-10-19T01:38:54;25.83;;;10.82;;
32032;SDS011;31720;52.638;9.216;2023-10-19T01:41:58;24.45;;;11.10;;
32032;SDS011;31720;52.638;9.216;2023-10-19T01:44:58;24.85;;;10.95;;
32032;SDS011;31720;52.638;9.216;2023-10-19T01:48:00;30.50;;;12.18;;
32032;SDS011;31720;52.638;9.216;2023-10-19T01:51:02;22.50;;;10.27;;
32032;SDS011;31720;52.638;9.216;2023-10-19T01:54:06;18.42;;;9.75;;
32032;SDS011;31720;52.638;9.216;2023-10-19T01:57:08;21.50;;;10.07;;
32032;SDS011;31720;52.638;9.216;2023-10-19T02:00:12;18.73;;;9.90;;
32032;SDS011;31720;52.638;9.216;2023-10-19T02:03:22;21.10;;;10.40;;
32032;SDS011;31720;52.638;9.216;2023-10-19T02:06:25;23.67;;;10.93;;
32032;SDS011;31720;52.638;9.216;2023-10-19T02:09:29;23.58;;;10.82;;
32032;SDS011;31720;52.638;9.216;2023-10-19T02:12:32;21.98;;;9.98;;
32032;SDS011;31720;52.638;9.216;2023-10-19T02:15:34;21.98;;;10.70;;
32032;SDS011;31720;52.638;9.216;2023-10-19T02:18:36;21.15;;;10.35;;
32032;SDS011;31720;52.638;9.216;2023-10-19T02:21:38;21.45;;;10.48;;
32032;SDS011;31720;52.638;9.216;2023-10-19T02:24:41;23.30;;;10.18;;
32032;SDS011;31720;52.638;9.216;2023-10-19T02:27:43;24.55;;;11.20;;
32032;SDS011;31720;52.638;9.216;2023-10-19T02:30:46;26.50;;;11.30;;
32032;SDS011;31720;52.638;9.216;2023-10-19T02:33:47;23.83;;;11.68;;
32032;SDS011;31720;52.638;9.216;2023-10-19T02:36:52;23.08;;;10.70;;
32032;SDS011;31720;52.638;9.216;2023-10-19T02:39:54;23.60;;;11.13;;
32032;SDS011;31720;52.638;9.216;2023-10-19T02:42:56;25.05;;;10.93;;
32032;SDS011;31720;52.638;9.216;2023-10-19T02:46:03;20.13;;;10.20;;
32032;SDS011;31720;52.638;9.216;2023-10-19T02:49:05;24.27;;;11.20;;
32032;SDS011;31720;52.638;9.216;2023-10-19T02:52:11;28.15;;;10.98;;
32032;SDS011;31720;52.638;9.216;2023-10-19T02:55:17;19.70;;;10.63;;
32032;SDS011;31720;52.638;9.216;2023-10-19T02:58:20;21.25;;;10.35;;
32032;SDS011;31720;52.638;9.216;2023-10-19T03:01:21;21.58;;;10.25;;
32032;SDS011;31720;52.638;9.216;2023-10-19T03:04:22;24.65;;;11.52;;
32032;SDS011;31720;52.638;9.216;2023-10-19T03:07:25;23.13;;;10.65;;
32032;SDS011;31720;52.638;9.216;2023-10-19T03:10:28;21.77;;;11.27;;
32032;SDS011;31720;52.638;9.216;2023-10-19T03:13:42;23.17;;;12.13;;
32032;SDS011;31720;52.638;9.216;2023-10-19T03:16:43;22.65;;;11.10;;
32032;SDS011;31720;52.638;9.216;2023-10-19T03:19:45;24.60;;;10.88;;
32032;SDS011;31720;52.638;9.216;2023-10-19T03:22:48;26.77;;;12.05;;
32032;SDS011;31720;52.638;9.216;2023-10-19T03:25:55;25.08;;;11.57;;
32032;SDS011;31720;52.638;9.216;2023-10-19T03:29:13;23.73;;;11.38;;
32032;SDS011;31720;52.638;9.216;2023-10-19T03:32:16;24.67;;;11.50;;
32032;SDS011;31720;52.638;9.216;2023-10-19T03:35:20;22.23;;;11.40;;
32032;SDS011;31720;52.638;9.216;2023-10-19T03:38:21;18.60;;;9.57;;
32032;SDS011;31720;52.638;9.216;2023-10-19T03:41:24;22.88;;;11.13;;
32032;SDS011;31720;52.638;9.216;2023-10-19T03:44:27;25.08;;;11.02;;
32032;SDS011;31720;52.638;9.216;2023-10-19T03:47:39;21.05;;;10.48;;
32032;SDS011;31720;52.638;9.216;2023-10-19T03:50:43;20.42;;;9.95;;
32032;SDS011;31720;52.638;9.216;2023-10-19T03:53:45;21.13;;;10.55;;
32032;SDS011;31720;52.638;9.216;2023-10-19T03:56:55;21.33;;;10.32;;
32032;SDS011;31720;52.638;9.216;2023-10-19T03:59:57;21.33;;;10.27;;
32032;SDS011;31720;52.638;9.216;2023-10-19T04:02:59;25.45;;;11.77;;
32032;SDS011;31720;52.638;9.216;2023-10-19T04:06:00;30.42;;;12.02;;
32032;SDS011;31720;52.638;9.216;2023-10-19T04:09:04;25.92;;;12.73;;
32032;SDS011;31720;52.638;9.216;2023-10-19T04:12:07;26.92;;;12.02;;
32032;SDS011;31720;52.638;9.216;2023-10-19T04:15:11;24.05;;;10.68;;
32032;SDS011;31720;52.638;9.216;2023-10-19T04:18:15;26.02;;;11.32;;
32032;SDS011;31720;52.638;9.216;2023-10-19T04:21:17;19.33;;;10.77;;
32032;SDS011;31720;52.638;9.216;2023-10-19T04:24:18;26.35;;;12.77;;
32032;SDS011;31720;52.638;9.216;2023-10-19T04:27:21;23.00;;;11.23;;
32032;SDS011;31720;52.638;9.216;2023-10-19T04:30:23;22.67;;;10.70;;
32032;SDS011;31720;52.638;9.216;2023-10-19T04:33:25;22.25;;;10.85;;
32032;SDS011;31720;52.638;9.216;2023-10-19T04:36:28;19.77;;;10.15;;
32032;SDS011;31720;52.638;9.216;2023-10-19T04:39:29;20.45;;;9.93;;
32032;SDS011;31720;52.638;9.216;2023-10-19T04:42:32;20.67;;;9.43;;
32032;SDS011;31720;52.638;9.216;2023-10-19T04:45:34;19.35;;;10.38;;
32032;SDS011;31720;52.638;9.216;2023-10-19T04:48:35;18.05;;;9.88;;
32032;SDS011;31720;52.638;9.216;2023-10-19T04:51:36;16.13;;;8.80;;
32032;SDS011;31720;52.638;9.216;2023-10-19T04:54:39;17.85;;;8.93;;
32032;SDS011;31720;52.638;9.216;2023-10-19T04:57:42;17.58;;;8.93;;
32032;SDS011;31720;52.638;9.216;2023-10-19T05:00:43;18.27;;;8.65;;
32032;SDS011;31720;52.638;9.216;2023-10-19T05:03:44;16.40;;;8.10;;
32032;SDS011;31720;52.638;9.216;2023-10-19T05:06:46;15.32;;;7.57;;
32032;SDS011;31720;52.638;9.216;2023-10-19T05:09:47;16.70;;;8.23;;
32032;SDS011;31720;52.638;9.216;2023-10-19T05:12:50;14.25;;;8.00;;
32032;SDS011;31720;52.638;9.216;2023-10-19T05:15:51;14.77;;;7.93;;
32032;SDS011;31720;52.638;9.216;2023-10-19T05:18:54;14.93;;;7.78;;
32032;SDS011;31720;52.638;9.216;2023-10-19T05:21:55;15.88;;;8.13;;
32032;SDS011;31720;52.638;9.216;2023-10-19T05:24:56;12.13;;;6.97;;
32032;SDS011;31720;52.638;9.216;2023-10-19T05:28:00;12.65;;;7.15;;
32032;SDS011;31720;52.638;9.216;2023-10-19T05:31:01;13.88;;;7.45;;
32032;SDS011;31720;52.638;9.216;2023-10-19T05:34:04;13.65;;;6.95;;
32032;SDS011;31720;52.638;9.216;2023-10-19T05:37:05;12.30;;;7.45;;
32032;SDS011;31720;52.638;9.216;2023-10-19T05:40:09;12.98;;;7.18;;
32032;SDS011;31720;52.638;9.216;2023-10-19T05:43:16;12.15;;;7.05;;
32032;SDS011;31720;52.638;9.216;2023-10-19T05:46:17;12.88;;;5.85;;
32032;SDS011;31720;52.638;9.216;2023-10-19T05:49:21;13.82;;;6.30;;
32032;SDS011;31720;52.638;9.216;2023-10-19T05:52:24;11.35;;;5.72;;
32032;SDS011;31720;52.638;9.216;2023-10-19T05:55:25;11.05;;;6.00;;
32032;SDS011;31720;52.638;9.216;2023-10-19T05:58:28;9.88;;;5.07;;
32032;SDS011;31720;52.638;9.216;2023-10-19T06:01:29;15.55;;;7.00;;
32032;SDS011;31720;52.638;9.216;2023-10-19T06:04:31;11.02;;;6.07;;
32032;SDS011;31720;52.638;9.216;2023-10-19T06:07:32;12.13;;;6.43;;
32032;SDS011;31720;52.638;9.216;2023-10-19T06:10:34;10.63;;;6.00;;
32032;SDS011;31720;52.638;9.216;2023-10-19T06:13:40;8.18;;;4.80;;
32032;SDS011;31720;52.638;9.216;2023-10-19T06:16:43;12.60;;;5.43;;
32032;SDS011;31720;52.638;9.216;2023-10-19T06:19:44;11.05;;;5.57;;
32032;SDS011;31720;52.638;9.216;2023-10-19T06:22:46;11.10;;;5.78;;
32032;SDS011;31720;52.638;9.216;2023-10-19T06:25:50;9.52;;;4.95;;
32032;SDS011;31720;52.638;9.216;2023-10-19T06:28:53;10.55;;;5.80;;
32032;SDS011;31720;52.638;9.216;2023-10-19T06:31:58;9.95;;;4.68;;
32032;SDS011;31720;52.638;9.216;2023-10-19T06:34:59;8.88;;;5.30;;
32032;SDS011;31720;52.638;9.216;2023-10-19T06:38:02;7.82;;;4.00;;
32032;SDS011;31720;52.638;9.216;2023-10-19T06:41:11;7.40;;;4.43;;
32032;SDS011;31720;52.638;9.216;2023-10-19T06:44:14;7.20;;;4.10;;
32032;SDS011;31720;52.638;9.216;2023-10-19T06:47:16;8.50;;;4.32;;
32032;SDS011;31720;52.638;9.216;2023-10-19T06:50:19;7.30;;;4.18;;
32032;SDS011;31720;52.638;9.216;2023-10-19T06:53:22;7.97;;;4.18;;
32032;SDS011;31720;52.638;9.216;2023-10-19T06:56:24;9.90;;;4.35;;
32032;SDS011;31720;52.638;9.216;2023-10-19T06:59:27;5.72;;;3.35;;
32032;SDS011;31720;52.638;9.216;2023-10-19T07:02:29;6.40;;;3.80;;
32032;SDS011;31720;52.638;9.216;2023-10-19T07:05:30;7.55;;;4.25;;
32032;SDS011;31720;52.638;9.216;2023-10-19T07:08:32;6.75;;;3.97;;
32032;SDS011;31720;52.638;9.216;2023-10-19T07:11:33;7.90;;;4.15;;
32032;SDS011;31720;52.638;9.216;2023-10-19T07:14:36;6.63;;;3.92;;
32032;SDS011;31720;52.638;9.216;2023-10-19T07:17:37;8.43;;;4.25;;
32032;SDS011;31720;52.638;9.216;2023-10-19T07:20:39;6.03;;;3.53;;
32032;SDS011;31720;52.638;9.216;2023-10-19T07:23:42;7.40;;;4.00;;
32032;SDS011;31720;52.638;9.216;2023-10-19T07:26:45;5.85;;;3.78;;
32032;SDS011;31720;52.638;9.216;2023-10-19T07:30:05;7.68;;;3.90;;
32032;SDS011;31720;52.638;9.216;2023-10-19T07:33:09;6.70;;;4.03;;
32032;SDS011;31720;52.638;9.216;2023-10-19T07:36:17;7.28;;;4.30;;
32032;SDS011;31720;52.638;9.216;2023-10-19T07:39:19;6.03;;;3.75;;
32032;SDS011;31720;52.638;9.216;2023-10-19T07:42:23;9.10;;;4.43;;
32032;SDS011;31720;52.638;9.216;2023-10-19T07:45:27;6.40;;;4.10;;
32032;SDS011;31720;52.638;9.216;2023-10-19T07:48:28;5.85;;;3.80;;
32032;SDS011;31720;52.638;9.216;2023-10-19T07:51:30;6.05;;;3.95;;
32032;SDS011;31720;52.638;9.216;2023-10-19T07:54:31;9.55;;;4.65;;
32032;SDS011;31720;52.638;9.216;2023-10-19T07:57:33;7.82;;;4.15;;
32032;SDS011;31720;52.638;9.216;2023-10-19T08:00:36;9.70;;;4.53;;
32032;SDS011;31720;52.638;9.216;2023-10-19T08:03:38;9.13;;;4.47;;
32032;SDS011;31720;52.638;9.216;2023-10-19T08:06:41;9.60;;;4.78;;
32032;SDS011;31720;52.638;9.216;2023-10-19T08:09:42;8.45;;;4.97;;
32032;SDS011;31720;52.638;9.216;2023-10-19T08:12:44;8.73;;;3.92;;
32032;SDS011;31720;52.638;9.216;2023-10-19T08:15:48;7.65;;;4.18;;
32032;SDS011;31720;52.638;9.216;2023-10-19T08:18:50;6.28;;;3.42;;
32032;SDS011;31720;52.638;9.216;2023-10-19T08:21:52;9.70;;;4.93;;
32032;SDS011;31720;52.638;9.216;2023-10-19T08:24:54;10.48;;;4.25;;
32032;SDS011;31720;52.638;9.216;2023-10-19T08:27:56;6.70;;;4.22;;
32032;SDS011;31720;52.638;9.216;2023-10-19T08:30:58;6.55;;;3.72;;
32032;SDS011;31720;52.638;9.216;2023-10-19T08:34:01;11.60;;;4.30;;
32032;SDS011;31720;52.638;9.216;2023-10-19T08:37:03;7.40;;;3.97;;
32032;SDS011;31720;52.638;9.216;2023-10-19T08:40:06;11.52;;;3.92;;
32032;SDS011;31720;52.638;9.216;2023-10-19T08:43:08;7.82;;;3.83;;
32032;SDS011;31720;52.638;9.216;2023-10-19T08:46:14;8.82;;;4.28;;
32032;SDS011;31720;52.638;9.216;2023-10-19T08:49:16;5.45;;;3.78;;
32032;SDS011;31720;52.638;9.216;2023-10-19T08:52:19;6.93;;;4.47;;
32032;SDS011;31720;52.638;9.216;2023-10-19T08:55:23;5.40;;;3.25;;
32032;SDS011;31720;52.638;9.216;2023-10-19T08:58:25;6.32;;;3.60;;
32032;SDS011;31720;52.638;9.216;2023-10-19T09:01:28;8.55;;;4.07;;
32032;SDS011;31720;52.638;9.216;2023-10-19T09:04:30;5.68;;;3.60;;
32032;SDS011;31720;52.638;9.216;2023-10-19T09:07:32;7.50;;;3.83;;
32032;SDS011;31720;52.638;9.216;2023-10-19T09:10:34;5.97;;;3.83;;
32032;SDS011;31720;52.638;9.216;2023-10-19T09:13:42;6.90;;;4.05;;
32032;SDS011;31720;52.638;9.216;2023-10-19T09:16:54;4.70;;;3.20;;
32032;SDS011;31720;52.638;9.216;2023-10-19T09:19:56;5.00;;;2.72;;
32032;SDS011;31720;52.638;9.216;2023-10-19T09:22:59;4.88;;;3.20;;
32032;SDS011;31720;52.638;9.216;2023-10-19T09:26:02;5.80;;;3.25;;
32032;SDS011;31720;52.638;9.216;2023-10-19T09:29:04;5.50;;;2.75;;
32032;SDS011;31720;52.638;9.216;2023-10-19T09:32:07;4.40;;;2.65;;
32032;SDS011;31720;52.638;9.216;2023-10-19T09:35:09;5.60;;;3.13;;
32032;SDS011;31720;52.638;9.216;2023-10-19T09:38:15;5.57;;;2.75;;
32032;SDS011;31720;52.638;9.216;2023-10-19T09:41:21;8.27;;;3.50;;
32032;SDS011;31720;52.638;9.216;2023-10-19T09:44:28;5.00;;;3.10;;
32032;SDS011;31720;52.638;9.216;2023-10-19T09:47:37;5.88;;;3.08;;
32032;SDS011;31720;52.638;9.216;2023-10-19T09:50:42;5.68;;;3.60;;
32032;SDS011;31720;52.638;9.216;2023-10-19T09:53:47;4.18;;;2.65;;
32032;SDS011;31720;52.638;9.216;2023-10-19T09:56:52;6.53;;;3.35;;
32032;SDS011;31720;52.638;9.216;2023-10-19T10:00:03;7.30;;;4.45;;
32032;SDS011;31720;52.638;9.216;2023-10-19T10:06:58;8.82;;;3.65;;
32032;SDS011;31720;52.638;9.216;2023-10-19T10:10:01;7.22;;;3.40;;
32032;SDS011;31720;52.638;9.216;2023-10-19T10:16:39;10.23;;;5.28;;
32032;SDS011;31720;52.638;9.216;2023-10-19T10:19:42;6.00;;;3.38;;
32032;SDS011;31720;52.638;9.216;2023-10-19T10:22:43;7.88;;;3.85;;
32032;SDS011;31720;52.638;9.216;2023-10-19T10:25:45;4.82;;;3.20;;
32032;SDS011;31720;52.638;9.216;2023-10-19T10:28:48;5.28;;;2.97;;
32032;SDS011;31720;52.638;9.216;2023-10-19T10:32:09;6.05;;;2.70;;
32032;SDS011;31720;52.638;9.216;2023-10-19T10:38:49;5.20;;;2.88;;
32032;SDS011;31720;52.638;9.216;2023-10-19T10:41:54;5.75;;;3.55;;
32032;SDS011;31720;52.638;9.216;2023-10-19T10:44:56;3.90;;;3.03;;
32032;SDS011;31720;52.638;9.216;2023-10-19T10:47:58;4.93;;;3.53;;
32032;SDS011;31720;52.638;9.216;2023-10-19T10:51:01;6.25;;;3.38;;
32032;SDS011;31720;52.638;9.216;2023-10-19T10:54:05;7.97;;;4.30;;
32032;SDS011;31720;52.638;9.216;2023-10-19T10:57:07;9.63;;;4.63;;
32032;SDS011;31720;52.638;9.216;2023-10-19T11:00:10;6.53;;;3.60;;
32032;SDS011;31720;52.638;9.216;2023-10-19T11:03:15;6.93;;;3.75;;
32032;SDS011;31720;52.638;9.216;2023-10-19T11:06:16;4.93;;;3.60;;
32032;SDS011;31720;52.638;9.216;2023-10-19T11:09:19;6.55;;;3.80;;
32032;SDS011;31720;52.638;9.216;2023-10-19T11:12:22;5.28;;;2.95;;
32032;SDS011;31720;52.638;9.216;2023-10-19T11:15:24;7.30;;;3.60;;
32032;SDS011;31720;52.638;9.216;2023-10-19T11:18:30;6.15;;;3.65;;
32032;SDS011;31720;52.638;9.216;2023-10-19T11:21:33;6.82;;;4.03;;
32032;SDS011;31720;52.638;9.216;2023-10-19T11:24:36;6.32;;;3.53;;
32032;SDS011;31720;52.638;9.216;2023-10-19T11:27:40;9.65;;;3.33;;
32032;SDS011;31720;52.638;9.216;2023-10-19T11:30:41;6.60;;;3.58;;
32032;SDS011;31720;52.638;9.216;2023-10-19T11:33:43;6.72;;;3.55;;
32032;SDS011;31720;52.638;9.216;2023-10-19T11:36:45;7.05;;;4.10;;
32032;SDS011;31720;52.638;9.216;2023-10-19T11:39:49;6.35;;;4.05;;
32032;SDS011;31720;52.638;9.216;2023-10-19T11:42:51;7.07;;;4.13;;
32032;SDS011;31720;52.638;9.216;2023-10-19T11:45:56;7.70;;;4.35;;
32032;SDS011;31720;52.638;9.216;2023-10-19T11:48:57;7.72;;;3.92;;
32032;SDS011;31720;52.638;9.216;2023-10-19T11:51:59;7.93;;;4.22;;
32032;SDS011;31720;52.638;9.216;2023-10-19T11:55:02;7.28;;;4.25;;
32032;SDS011;31720;52.638;9.216;2023-10-19T11:58:05;21.88;;;7.20;;
32032;SDS011;31720;52.638;9.216;2023-10-19T12:01:11;14.25;;;4.88;;
32032;SDS011;31720;52.638;9.216;2023-10-19T12:04:13;7.85;;;4.45;;
32032;SDS011;31720;52.638;9.216;2023-10-19T12:07:15;7.57;;;4.53;;
32032;SDS011;31720;52.638;9.216;2023-10-19T12:10:17;7.43;;;4.45;;
32032;SDS011;31720;52.638;9.216;2023-10-19T12:13:20;7.90;;;4.47;;
32032;SDS011;31720;52.638;9.216;2023-10-19T12:16:21;8.48;;;4.95;;
32032;SDS011;31720;52.638;9.216;2023-10-19T12:19:24;7.38;;;4.68;;
32032;SDS011;31720;52.638;9.216;2023-10-19T12:22:25;9.38;;;5.25;;
32032;SDS011;31720;52.638;9.216;2023-10-19T12:25:29;12.65;;;4.60;;
32032;SDS011;31720;52.638;9.216;2023-10-19T12:28:31;7.88;;;4.68;;
32032;SDS011;31720;52.638;9.216;2023-10-19T12:31:33;9.32;;;4.95;;
32032;SDS011;31720;52.638;9.216;2023-10-19T12:34:34;12.68;;;5.50;;
32032;SDS011;31720;52.638;9.216;2023-10-19T12:37:36;9.68;;;5.32;;
32032;SDS011;31720;52.638;9.216;2023-10-19T12:40:43;8.55;;;5.00;;
32032;SDS011;31720;52.638;9.216;2023-10-19T12:43:46;8.73;;;5.18;;
32032;SDS011;31720;52.638;9.216;2023-10-19T12:46:48;10.80;;;5.75;;
32032;SDS011;31720;52.638;9.216;2023-10-19T12:49:49;11.00;;;6.05;;
32032;SDS011;31720;52.638;9.216;2023-10-19T12:52:51;12.10;;;6.20;;
32032;SDS011;31720;52.638;9.216;2023-10-19T12:55:53;11.02;;;5.97;;
32032;SDS011;31720;52.638;9.216;2023-10-19T12:58:55;14.98;;;5.75;;
32032;SDS011;31720;52.638;9.216;2023-10-19T13:01:56;12.98;;;6.10;;
32032;SDS011;31720;52.638;9.216;2023-10-19T13:04:58;15.02;;;6.93;;
32032;SDS011;31720;52.638;9.216;2023-10-19T13:08:00;11.07;;;5.60;;
32032;SDS011;31720;52.638;9.216;2023-10-19T13:11:03;13.70;;;6.80;;
32032;SDS011;31720;52.638;9.216;2023-10-19T13:14:05;14.90;;;6.88;;
32032;SDS011;31720;52.638;9.216;2023-10-19T13:17:06;17.33;;;8.65;;
32032;SDS011;31720;52.638;9.216;2023-10-19T13:20:09;18.25;;;7.53;;
32032;SDS011;31720;52.638;9.216;2023-10-19T13:23:18;15.32;;;7.45;;
32032;SDS011;31720;52.638;9.216;2023-10-19T13:26:23;14.85;;;7.75;;
32032;SDS011;31720;52.638;9.216;2023-10-19T13:29:25;14.40;;;7.32;;
32032;SDS011;31720;52.638;9.216;2023-10-19T13:32:28;16.60;;;7.22;;
32032;SDS011;31720;52.638;9.216;2023-10-19T13:35:29;15.00;;;7.90;;
32032;SDS011;31720;52.638;9.216;2023-10-19T13:38:32;16.77;;;8.05;;
32032;SDS011;31720;52.638;9.216;2023-10-19T13:41:34;17.90;;;7.00;;
32032;SDS011;31720;52.638;9.216;2023-10-19T13:44:37;20.65;;;7.55;;
32032;SDS011;31720;52.638;9.216;2023-10-19T13:47:38;17.27;;;7.15;;
32032;SDS011;31720;52.638;9.216;2023-10-19T13:50:40;15.88;;;7.97;;
32032;SDS011;31720;52.638;9.216;2023-10-19T13:53:43;18.60;;;8.23;;
32032;SDS011;31720;52.638;9.216;2023-10-19T13:56:47;23.55;;;8.40;;
32032;SDS011;31720;52.638;9.216;2023-10-19T13:59:48;22.17;;;9.02;;
32032;SDS011;31720;52.638;9.216;2023-10-19T14:02:51;16.70;;;8.43;;
32032;SDS011;31720;52.638;9.216;2023-10-19T14:05:53;17.23;;;7.65;;
32032;SDS011;31720;52.638;9.216;2023-10-19T14:08:56;22.00;;;8.13;;
32032;SDS011;31720;52.638;9.216;2023-10-19T14:11:59;27.23;;;9.80;;
32032;SDS011;31720;52.638;9.216;2023-10-19T14:15:02;19.83;;;9.32;;
32032;SDS011;31720;52.638;9.216;2023-10-19T14:18:04;21.02;;;9.23;;
32032;SDS011;31720;52.638;9.216;2023-10-19T14:21:13;21.55;;;8.68;;
32032;SDS011;31720;52.638;9.216;2023-10-19T14:24:15;26.42;;;8.93;;
32032;SDS011;31720;52.638;9.216;2023-10-19T14:27:18;19.08;;;8.98;;
32032;SDS011;31720;52.638;9.216;2023-10-19T14:30:21;22.48;;;8.63;;
32032;SDS011;31720;52.638;9.216;2023-10-19T14:33:23;21.60;;;9.48;;
32032;SDS011;31720;52.638;9.216;2023-10-19T14:36:25;22.27;;;9.43;;
32032;SDS011;31720;52.638;9.216;2023-10-19T14:39:26;25.75;;;9.95;;
32032;SDS011;31720;52.638;9.216;2023-10-19T14:42:29;23.15;;;10.15;;
32032;SDS011;31720;52.638;9.216;2023-10-19T14:45:33;22.88;;;9.70;;
32032;SDS011;31720;52.638;9.216;2023-10-19T14:48:35;25.23;;;9.60;;
32032;SDS011;31720;52.638;9.216;2023-10-19T14:51:36;22.75;;;9.70;;
32032;SDS011;31720;52.638;9.216;2023-10-19T14:54:38;23.90;;;10.23;;
32032;SDS011;31720;52.638;9.216;2023-10-19T14:57:41;18.40;;;8.45;;
32032;SDS011;31720;52.638;9.216;2023-10-19T15:00:43;26.25;;;10.10;;
32032;SDS011;31720;52.638;9.216;2023-10-19T15:03:45;19.85;;;9.02;;
32032;SDS011;31720;52.638;9.216;2023-10-19T15:06:46;25.75;;;9.52;;
32032;SDS011;31720;52.638;9.216;2023-10-19T15:09:48;47.30;;;15.77;;
32032;SDS011;31720;52.638;9.216;2023-10-19T15:12:50;41.55;;;15.43;;
32032;SDS011;31720;52.638;9.216;2023-10-19T15:15:52;24.27;;;10.15;;
32032;SDS011;31720;52.638;9.216;2023-10-19T15:18:55;33.85;;;11.13;;
32032;SDS011;31720;52.638;9.216;2023-10-19T15:21:56;29.45;;;10.55;;
32032;SDS011;31720;52.638;9.216;2023-10-19T15:24:57;30.65;;;12.32;;
32032;SDS011;31720;52.638;9.216;2023-10-19T15:28:00;32.00;;;10.95;;
32032;SDS011;31720;52.638;9.216;2023-10-19T15:31:02;27.45;;;11.52;;
32032;SDS011;31720;52.638;9.216;2023-10-19T15:34:05;31.05;;;13.13;;
32032;SDS011;31720;52.638;9.216;2023-10-19T15:37:07;31.63;;;11.82;;
32032;SDS011;31720;52.638;9.216;2023-10-19T15:40:09;29.40;;;11.23;;
32032;SDS011;31720;52.638;9.216;2023-10-19T15:43:13;31.00;;;12.57;;
32032;SDS011;31720;52.638;9.216;2023-10-19T15:46:15;33.28;;;12.23;;
32032;SDS011;31720;52.638;9.216;2023-10-19T15:49:17;36.47;;;12.65;;
32032;SDS011;31720;52.638;9.216;2023-10-19T15:52:19;31.15;;;11.90;;
32032;SDS011;31720;52.638;9.216;2023-10-19T15:55:21;44.30;;;14.80;;
32032;SDS011;31720;52.638;9.216;2023-10-19T15:58:24;42.72;;;14.35;;
32032;SDS011;31720;52.638;9.216;2023-10-19T16:01:25;27.70;;;12.52;;
32032;SDS011;31720;52.638;9.216;2023-10-19T16:04:27;36.38;;;14.18;;
32032;SDS011;31720;52.638;9.216;2023-10-19T16:07:29;85.95;;;28.92;;
32032;SDS011;31720;52.638;9.216;2023-10-19T16:10:30;34.38;;;13.35;;
32032;SDS011;31720;52.638;9.216;2023-10-19T16:13:33;58.67;;;22.08;;
32032;SDS011;31720;52.638;9.216;2023-10-19T16:16:35;40.80;;;15.77;;
32032;SDS011;31720;52.638;9.216;2023-10-19T16:19:36;39.97;;;13.63;;
32032;SDS011;31720;52.638;9.216;2023-10-19T16:22:38;31.55;;;12.50;;
32032;SDS011;31720;52.638;9.216;2023-10-19T16:25:39;38.33;;;13.65;;
32032;SDS011;31720;52.638;9.216;2023-10-19T16:28:42;34.30;;;13.93;;
32032;SDS011;31720;52.638;9.216;2023-10-19T16:31:44;29.60;;;12.13;;
32032;SDS011;31720;52.638;9.216;2023-10-19T16:34:47;44.15;;;16.75;;
32032;SDS011;31720;52.638;9.216;2023-10-19T16:37:49;30.75;;;13.63;;
32032;SDS011;31720;52.638;9.216;2023-10-19T16:40:50;46.67;;;15.63;;
32032;SDS011;31720;52.638;9.216;2023-10-19T16:44:00;37.35;;;14.75;;
32032;SDS011;31720;52.638;9.216;2023-10-19T16:47:01;32.45;;;13.15;;
32032;SDS011;31720;52.638;9.216;2023-10-19T16:50:04;43.08;;;14.73;;
32032;SDS011;31720;52.638;9.216;2023-10-19T16:53:11;41.17;;;13.82;;
32032;SDS011;31720;52.638;9.216;2023-10-19T16:56:12;37.53;;;13.90;;
32032;SDS011;31720;52.638;9.216;2023-10-19T16:59:15;39.80;;;15.05;;
32032;SDS011;31720;52.638;9.216;2023-10-19T17:02:17;37.80;;;15.90;;
32032;SDS011;31720;52.638;9.216;2023-10-19T17:05:18;38.83;;;13.57;;
32032;SDS011;31720;52.638;9.216;2023-10-19T17:08:20;40.00;;;14.20;;
32032;SDS011;31720;52.638;9.216;2023-10-19T17:11:21;36.47;;;13.77;;
32032;SDS011;31720;52.638;9.216;2023-10-19T17:14:24;40.28;;;14.75;;
32032;SDS011;31720;52.638;9.216;2023-10-19T17:17:25;29.10;;;12.02;;
32032;SDS011;31720;52.638;9.216;2023-10-19T17:20:27;36.65;;;14.32;;
32032;SDS011;31720;52.638;9.216;2023-10-19T17:23:29;38.30;;;13.52;;
32032;SDS011;31720;52.638;9.216;2023-10-19T17:26:31;40.35;;;13.82;;
32032;SDS011;31720;52.638;9.216;2023-10-19T17:29:34;44.80;;;14.88;;
32032;SDS011;31720;52.638;9.216;2023-10-19T17:32:35;34.95;;;14.52;;
32032;SDS011;31720;52.638;9.216;2023-10-19T17:35:37;37.38;;;12.75;;
32032;SDS011;31720;52.638;9.216;2023-10-19T17:38:39;41.38;;;12.90;;
32032;SDS011;31720;52.638;9.216;2023-10-19T17:41:40;36.15;;;13.02;;
32032;SDS011;31720;52.638;9.216;2023-10-19T17:44:47;35.00;;;12.82;;
32032;SDS011;31720;52.638;9.216;2023-10-19T17:47:49;28.70;;;12.23;;
32032;SDS011;31720;52.638;9.216;2023-10-19T17:50:51;35.50;;;13.48;;
32032;SDS011;31720;52.638;9.216;2023-10-19T17:53:52;36.95;;;13.98;;
32032;SDS011;31720;52.638;9.216;2023-10-19T17:56:54;29.23;;;12.73;;
32032;SDS011;31720;52.638;9.216;2023-10-19T17:59:57;36.50;;;14.50;;
32032;SDS011;31720;52.638;9.216;2023-10-19T18:02:58;36.10;;;14.35;;
32032;SDS011;31720;52.638;9.216;2023-10-19T18:05:59;30.55;;;12.98;;
32032;SDS011;31720;52.638;9.216;2023-10-19T18:09:01;41.78;;;15.23;;
32032;SDS011;31720;52.638;9.216;2023-10-19T18:12:04;27.40;;;11.35;;
32032;SDS011;31720;52.638;9.216;2023-10-19T18:15:08;33.83;;;12.85;;
32032;SDS011;31720;52.638;9.216;2023-10-19T18:18:10;32.85;;;13.63;;